Hauptseite
METAR-TAF:

METAR-TAF

Flughäfen :

Flughafen Nîmes-Alès-Camargue-Cévennes

Nîmes, Frankreich

Breite: 43-45N, Länge: 004-25E, Höhe: 94 m

Beobachtung

Neuester Wetterbericht von vor 34 Minuten, um 03:00 UTC
Wind 9 kt aus Nord, variierte zwischen Nordwest und Nord/Nordost
Temperatur 21°C
Luftfeuchtigkeit 60%
Luftdruck 1018 hPa
Sichtweite 10 km oder mehr
keine Wolken unter 1500 m und keine Kumulonimbus oder Gewitterwolken

METAR: LFTW 200300Z AUTO 36009KT 320V020 CAVOK 21/13 Q1018 NOSIG

Zeit: 05:34 (03:34 UTC)

Prognose

Neuester Wetterbericht von vor 1 Stunde und 34 Minuten, um 02:00 UTC
Gültige Prognose vom 20 um 03 UTC bis 21 um 03 UTC
Wind 10 kt aus Nord/Nordost
Sichtweite 10 km oder mehr
keine Wolken unter 1500 m und keine Kumulonimbus oder Gewitterwolken
Übergehend zu
vom 21 um 01 UTC bis 21 um 03 UTC
Wind 20 kt aus Nord, Böen bis zu 30 kt

TAF: LFTW 200200Z 2003/2103 02010KT CAVOK BECMG 2101/2103 36020G30KT

Wetterbeobachtungen und Prognosen von mehr als 4000 Flughäfen (METAR und TAF Bericht).

Die verfügbaren Stationen werden durch gelbe und rote Markierungen auf der Karte dargestellt.

Führen Sie die Maus auf sie, um den Namen der Station zu sehen.

Darauf klicken, um die Beobachtung von Wetterbeobachtungen und Prognosen zu sehen.

Um die Karte zu ändern : klicken Sie auf den grünen Tasten mit einem schwarzen Kreuz Zum Vergrößern, auf den grünen Button mit einem Gedankenstrich zu verkleinern, oder auf die grünen Pfeile für benachbarte Karten.


METAR-TAF: